x

Northern Hawaii One - 245nm Ne Of Honolulu Hi (51000) Wave Buoy

5:50am - Fri 3rd Jul 2015 All times are HST. -10 hours from GMT.

  • Sig Wave height 5.2ft
  • Peak Period 9s
  • Average Period 6s
  • Wind
    9mph, 13mph gusts
  • Sea Temp 79°f
  • Air Temp 78°f
  • Sea Pressure 1012.5mb
  • Northern Hawaii One - 245nm Ne Of Honolulu Hi
  • Northern Hawaii One - 245nm Ne Of Honolulu Hi

More Historic Weather Station data

Upgrade to MSW Pro to gain access to the past 30 days of data for over 8000 Wavebouys and Weather Stations around the globe.

Join Pro

Comparision Forecast

View Surf forecast
   
Fri 07/03 5:50am 5ft 9s 6s 9 13 mph 1012.5mb 79f 78f
4:50am 5ft 9s 6s 9 13 mph 1012.1mb 79f 79f
3:50am 5.5ft 9s 7s 9 13 mph 1012.2mb 79f 79f
2:50am 6ft 8s 7s 9 13 mph 1012.4mb 79f 79f
1:50am 5.5ft 8s 6s 11 16 mph 1012.5mb 79f 79f
12:50am 6ft 9s 7s 13 16 mph 1013mb 80f 79f
Thu 07/02 11:50pm 6ft 9s 6s 11 16 mph 1013.4mb 80f 79f
10:50pm  -   -   -  11 13 mph 1013.6mb 80f 79f
9:50pm 5.5ft 8s 7s 11 13 mph 1013.3mb 80f 79f
8:50pm 6.5ft 10s 7s 11 13 mph 1012.9mb 80f 79f
7:50pm 6ft 10s 7s 11 13 mph 1012.3mb 80f 79f
6:50pm 6ft 10s 7s 11 13 mph 1011.8mb 80f 79f
5:50pm 6.5ft 9s 7s 11 13 mph 1011.6mb 80f 80f
4:50pm 6ft 9s 7s 11 16 mph 1011.3mb 80f 80f
3:50pm  -   -   -  13
mph
1011.6mb 80f 80f
2:50pm 6ft 9s 6s 11 16 mph 1011.8mb 80f 80f
1:50pm  -   -   -  13
mph
- - 79f
12:50pm 6.5ft 8s 6s 13 16 mph 1012.3mb 80f 79f
11:50am  -   -   -  13 18 mph 1012.6mb 80f 79f
10:50am 6ft 9s 7s 13 18 mph 1012.5mb 80f 79f
9:50am 6ft 9s 6s 13 18 mph 1012.4mb 79f 79f
8:50am  -   -   -  11 16 mph 1012.3mb 79f 79f
7:50am 5.5ft 8s 6s 11 16 mph 1011.8mb 79f 78f
6:50am 6ft 9s 6s 13 16 mph 1011.5mb 79f 79f
5:50am  -   -   -  11 16 mph 1011mb 79f 79f
4:50am 5ft 9s 6s 13 16 mph 1010.6mb 79f 79f
3:50am 5.5ft 9s 6s 13 18 mph 1010.6mb 79f 79f
2:50am 5ft 9s 6s 13 16 mph 1010.7mb 79f 78f
1:50am  -   -   -  13 16 mph 1010.9mb 79f 79f
12:50am 5ft 9s 6s 9 11 mph 1011.4mb 79f 78f
Wed 07/01 11:50pm 5ft 10s 6s 11 13 mph 1011.7mb 80f 78f
10:50pm 5ft 9s 6s 11 13 mph 1012mb 80f 79f
9:50pm 5ft 9s 7s 13 16 mph 1011.6mb 80f 79f
8:50pm  -   -   -  11 13 mph 1011.3mb 80f 79f
8:00pm  -   -   -  11 13 mph 1011mb 80f 79f
6:50pm 5ft 9s 6s 11 13 mph 1010.6mb 80f 79f
5:50pm  -   -   -  11 13 mph 1010.2mb 80f 80f
4:50pm  -   -   -  11 13 mph 1010mb 80f 79f
3:50pm  -   -   -  11 16 mph 1010.3mb 80f 79f
2:50pm  -   -   -  11 16 mph 1010.7mb 80f 79f
1:50pm  -   -   -  13 16 mph 1011.1mb 80f 79f
11:50am  -   -   -  13 16 mph 1011.8mb 80f 79f
10:50am  -   -   -  13 16 mph 1012mb 79f 79f
9:50am  -   -   -  13 16 mph 1012mb 79f 79f
8:50am  -   -   -  13 16 mph 1011.9mb 79f 79f
7:50am 4ft 12s 5s 13 16 mph 1011.5mb 79f 79f
6:50am  -   -   -  13 16 mph 1011.2mb 79f 78f
5:50am  -   -   -  9 11 mph 1011.2mb 79f 77f
4:50am  -   -   -  11
mph
1011.1mb 79f 77f
3:50am  -   -   -  11
mph
1011.2mb 79f 78f
2:50am  -   -   -  11 13 mph 1011.6mb 79f 78f
1:50am  -   -   -  11
mph
1011.9mb 79f 78f
12:50am  -   -   -  11 13 mph 1012.5mb 80f 78f
Tue 06/30 11:50pm  -   -   -  9
mph
1013.1mb - 78f
10:50pm  -   -   -  9 11 mph 1013.5mb 80f 78f
9:50pm  -   -   -  4 9 mph 1013.6mb 80f 79f
8:50pm 4.5ft 9s 7s 7
mph
1013.2mb 80f 79f
7:50pm  -   -   -  7 9 mph 1012.7mb 81f 79f
6:50pm 4.5ft 8s 7s 7 9 mph 1012.4mb 81f 79f
5:50pm 4.5ft 8s 7s 4 9 mph 1012.2mb 81f 79f
4:50pm 4.5ft 7s 7s 2 7 mph 1012.2mb 80f 79f
3:50pm 4ft 8s 7s 9 11 mph 1012.2mb 80f 79f
2:50pm  -   -   -  9 11 mph 1012.7mb 80f 79f
1:50pm  -   -   -  7 11 mph 1013.3mb 80f 78f
12:50pm 4.5ft 8s 7s 4 9 mph 1013.7mb 80f 78f
11:50am  -   -   -  7 9 mph 1014.1mb 79f 78f
10:50am  -   -   -  4 9 mph 1014.5mb 79f 77f
9:50am 4.5ft 9s 7s 9 13 mph 1014.6mb 79f 78f
8:50am 4.5ft 9s 6s 7 13 mph 1014.5mb 79f 78f
7:50am 4.5ft 9s 7s 4 9 mph 1014.5mb 79f 78f
6:50am  -   -   -  4 13 mph 1014.2mb 79f 78f
5:50am 4.5ft 9s 7s 2 11 mph 1013.7mb 79f 78f
4:50am 4.5ft 10s 7s 2 9 mph 1013.8mb 79f 77f
3:50am 4.5ft 9s 7s 2 7 mph 1014mb 79f 77f
2:50am  -   -   -  2 7 mph 1014mb 79f 77f
1:50am 4.5ft 9s 7s 2 9 mph 1014.6mb 79f 78f
12:50am 4.5ft 9s 7s 2 7 mph 1015.5mb 80f 78f
Mon 06/29 11:50pm 4.5ft 8s 7s 4 9 mph 1016mb 80f 78f
10:50pm 4.5ft 9s 7s 4 9 mph 1016.3mb 80f 78f
9:50pm 4.5ft 9s 8s 2 7 mph 1016.1mb 80f 78f
8:50pm 4.5ft 8s 8s  -  4 mph 1015.7mb 81f 78f
7:50pm 4.5ft 8s 8s  -  mph 1015.3mb 81f 78f
6:50pm 5ft 8s 8s  -  mph 1014.6mb 81f 79f
5:50pm 4.5ft 8s 8s  -  mph 1014.3mb 82f 79f
4:50pm 4.5ft 10s 8s  -  mph 1014.3mb 82f 78f